Airfield :
LOGIN :

Register | Disclaimer

   EN    FR    IT 

 










Legend :    VFR   Marginal VFR   IFR   Intensive IFR   Very Intensive IFR
Visi :
Ceiling :
>= 8 km
>= 3000ft
5 to 8 km
1000 to 3000 ft
1500m to 5 km
500 to 1000 ft
800 to 1500m
200 to 500 ft
< 800m
< 200 ft
Symbols :   Thunderstorms  Fog  Heavy snow  Heavy precipitations  Wind > 20 kt
SIGMETs :     Misc.  Thunderstorms  Icing  Turbulence  Mountain Waves  Volcanic Ashes






- Airport Elevation : 459 ft
- IATA code : CER


LFRC - Cherbourg / Maupertus

CURRENT METAR :
  • 152000Z AUTO 36019G30KT 9999 -RA BKN018 OVC023 07/05 Q1000

EXPIRED METARs :
  • 151930Z AUTO 35016G27KT 9999 -RA BKN017 BKN024 BKN029 07/05 Q1000
  • 151900Z AUTO 36016KT 9999 -RA BKN019 OVC027 07/05 Q1000
  • 151830Z AUTO 36019G31KT 330V030 9999 -RA BKN021 BKN027 OVC032 07/04 Q1001 TEMPO 4000 SHRA BKN008 BKN015CB
  • 151800Z AUTO 36016G27KT 9999 -RA SCT017 BKN023 OVC033 07/05 Q1001 TEMPO 4000 SHRA BKN008 BKN015CB
  • 151730Z AUTO 36016KT 9999 BKN022 BKN034 OVC062 08/05 Q1000 TEMPO 4000 SHRA BKN008 BKN015CB BECMG 01015G30KT

TAF TAF LFRC
Valid from the 15 at 15:00 until the 16 at 00:00 UTC


151400Z 1515/1524 01015G30KT 9999 BKN020
TEMPO 1515/1524 4000 SHRA BKN008 BKN015CB



MET'MAP, your aeronautical weather chart ! - Copyright ORBIFLY December 2007 - Disclaimer

ORBIFLY MET'MAP TEAM :

Programming & Development : Alexandra Zaïnal
Concept & Development : Baudouin d'Aumeries
Co-Development & Prog : Marc-Olivier Méhu
Technical & hardware support : Manuel Goepfert

Contact : metmap@orbifly.com




SOURCES & CREDITS :

   NOAA